createdAt,value
2018-06-28T00:00:49.709Z,989.446
2018-06-28T00:02:49.755Z,989.435
2018-06-28T00:04:49.983Z,989.414
2018-06-28T00:06:50.262Z,989.414
2018-06-28T00:08:50.422Z,989.404
2018-06-28T00:10:49.758Z,989.388
2018-06-28T00:12:49.861Z,989.381
2018-06-28T00:14:49.945Z,989.391
2018-06-28T00:16:50.090Z,989.411
2018-06-28T00:18:50.167Z,989.400
2018-06-28T00:20:50.270Z,989.386
2018-06-28T00:22:50.445Z,989.386
2018-06-28T00:24:50.493Z,989.314
2018-06-28T00:26:49.802Z,989.291
2018-06-28T00:28:49.853Z,989.288
2018-06-28T00:30:50.029Z,989.285
2018-06-28T00:32:50.073Z,989.274
2018-06-28T00:34:50.428Z,989.273
2018-06-28T00:36:50.586Z,989.269
2018-06-28T00:38:49.651Z,989.238
2018-06-28T00:40:49.704Z,989.200
2018-06-28T00:42:49.804Z,989.179
2018-06-28T00:44:49.892Z,989.154
2018-06-28T00:46:50.068Z,989.131
2018-06-28T00:48:50.182Z,989.113
2018-06-28T00:50:50.267Z,989.107
2018-06-28T00:52:50.362Z,989.096
2018-06-28T00:54:50.426Z,989.101
2018-06-28T00:56:49.676Z,989.098
2018-06-28T00:58:49.767Z,989.087
2018-06-28T01:00:49.876Z,989.082
2018-06-28T01:02:49.988Z,989.056
2018-06-28T01:04:50.254Z,989.055
2018-06-28T01:06:50.541Z,989.058
2018-06-28T01:08:50.574Z,989.051
2018-06-28T01:10:49.697Z,989.031
2018-06-28T01:12:49.810Z,989.021
2018-06-28T01:14:49.871Z,988.991
2018-06-28T01:16:50.050Z,988.968
2018-06-28T01:18:50.128Z,988.968
2018-06-28T01:20:50.274Z,988.955
2018-06-28T01:22:50.321Z,988.945
2018-06-28T01:24:50.427Z,988.922
2018-06-28T01:26:50.601Z,988.927
2018-06-28T01:28:49.708Z,988.938
2018-06-28T01:30:49.791Z,988.955
2018-06-28T01:32:49.798Z,988.970
2018-06-28T01:34:50.076Z,988.966
2018-06-28T01:36:50.285Z,988.965
2018-06-28T01:38:50.416Z,988.943
2018-06-28T01:40:50.491Z,988.940
2018-06-28T01:42:49.642Z,988.881
2018-06-28T01:44:49.785Z,988.855
2018-06-28T01:46:50.248Z,988.847
2018-06-28T01:48:49.771Z,988.844
2018-06-28T01:50:49.872Z,988.858
2018-06-28T01:52:50.002Z,988.877
2018-06-28T01:54:50.094Z,988.894
2018-06-28T01:56:50.307Z,988.916
2018-06-28T01:58:50.378Z,988.927
2018-06-28T02:00:50.492Z,988.929
2018-06-28T02:02:50.562Z,988.916
2018-06-28T02:04:49.907Z,988.863
2018-06-28T02:06:50.113Z,988.794
2018-06-28T02:08:50.364Z,988.786
2018-06-28T02:10:50.481Z,988.810
2018-06-28T02:12:50.636Z,988.807
2018-06-28T02:14:49.683Z,988.830
2018-06-28T02:16:49.937Z,988.820
2018-06-28T02:18:50.023Z,988.817
2018-06-28T02:20:50.218Z,988.802
2018-06-28T02:22:50.353Z,988.796
2018-06-28T02:24:50.442Z,988.786
2018-06-28T02:26:49.627Z,988.765
2018-06-28T02:28:49.776Z,988.744
2018-06-28T02:30:49.881Z,988.742
2018-06-28T02:32:49.962Z,988.757
2018-06-28T02:34:50.329Z,988.750
2018-06-28T02:36:50.581Z,988.731
2018-06-28T02:38:49.670Z,988.724
2018-06-28T02:40:49.779Z,988.732
2018-06-28T02:42:49.846Z,988.734
2018-06-28T02:44:50.070Z,988.729
2018-06-28T02:46:50.360Z,988.675
2018-06-28T02:48:50.445Z,988.633
2018-06-28T02:50:50.527Z,988.609
2018-06-28T02:52:49.669Z,988.606
2018-06-28T02:54:49.859Z,988.594
2018-06-28T02:56:50.091Z,988.585
2018-06-28T02:58:50.180Z,988.597
2018-06-28T03:00:50.233Z,988.620
2018-06-28T03:02:50.389Z,988.655
2018-06-28T03:04:49.647Z,988.686
2018-06-28T03:06:49.890Z,988.705
2018-06-28T03:08:50.055Z,988.693
2018-06-28T03:10:50.162Z,988.717
2018-06-28T03:12:50.300Z,988.726
2018-06-28T03:14:50.453Z,988.720
2018-06-28T03:16:49.777Z,988.715
2018-06-28T03:18:49.888Z,988.706
2018-06-28T03:20:50.006Z,988.719
2018-06-28T03:22:50.174Z,988.720
2018-06-28T03:24:50.334Z,988.731
2018-06-28T03:26:49.612Z,988.731
2018-06-28T03:28:49.660Z,988.754
2018-06-28T03:30:49.923Z,988.734
2018-06-28T03:32:50.373Z,988.720
2018-06-28T03:34:49.604Z,988.706
2018-06-28T03:36:49.840Z,988.692
2018-06-28T03:38:49.916Z,988.695
2018-06-28T03:40:50.009Z,988.690
2018-06-28T03:42:50.108Z,988.674
2018-06-28T03:44:50.222Z,988.676
2018-06-28T03:46:50.535Z,988.688
2018-06-28T03:48:49.797Z,988.697
2018-06-28T03:50:49.868Z,988.701
2018-06-28T03:52:49.898Z,988.685
2018-06-28T03:54:49.959Z,988.665
2018-06-28T03:56:50.126Z,988.660
2018-06-28T03:58:50.356Z,988.678
2018-06-28T04:00:50.577Z,988.678
2018-06-28T04:02:49.677Z,988.710
2018-06-28T04:04:50.007Z,988.723
2018-06-28T04:06:50.265Z,988.727
2018-06-28T04:08:50.384Z,988.744
2018-06-28T04:10:50.439Z,988.718
2018-06-28T04:12:50.493Z,988.663
2018-06-28T04:14:49.682Z,988.626
2018-06-28T04:16:50.069Z,988.626
2018-06-28T04:18:50.198Z,988.636
2018-06-28T04:20:50.280Z,988.626
2018-06-28T04:22:50.360Z,988.610
2018-06-28T04:24:50.419Z,988.574
2018-06-28T04:26:49.654Z,988.521
2018-06-28T04:28:49.944Z,988.521
2018-06-28T04:30:50.018Z,988.493
2018-06-28T04:32:50.156Z,988.497
2018-06-28T04:34:50.409Z,988.500
2018-06-28T04:36:50.622Z,988.505
2018-06-28T04:38:49.721Z,988.472
2018-06-28T04:40:49.816Z,988.455
2018-06-28T04:42:50.063Z,988.460
2018-06-28T04:44:50.179Z,988.461
2018-06-28T04:46:50.338Z,988.456
2018-06-28T04:48:50.373Z,988.424
2018-06-28T04:50:50.481Z,988.418
2018-06-28T04:52:50.479Z,988.409
2018-06-28T04:54:50.583Z,988.399
2018-06-28T04:56:49.859Z,988.395
2018-06-28T04:58:49.916Z,988.384
2018-06-28T05:00:50.091Z,988.355
2018-06-28T05:02:50.165Z,988.321
2018-06-28T05:04:50.375Z,988.301
2018-06-28T05:06:50.561Z,988.278
2018-06-28T05:08:49.645Z,988.260
2018-06-28T05:10:49.705Z,988.230
2018-06-28T05:12:49.747Z,988.218
2018-06-28T05:14:49.812Z,988.214
2018-06-28T05:16:49.936Z,988.199
2018-06-28T05:18:50.005Z,988.181
2018-06-28T05:20:50.130Z,988.175
2018-06-28T05:22:50.200Z,988.149
2018-06-28T05:24:50.304Z,988.119
2018-06-28T05:26:50.424Z,988.074
2018-06-28T05:28:50.454Z,988.043
2018-06-28T05:30:49.627Z,988.002
2018-06-28T05:32:49.672Z,987.992
2018-06-28T05:34:50.053Z,987.982
2018-06-28T05:36:50.007Z,987.964
2018-06-28T05:38:50.042Z,987.965
2018-06-28T05:40:50.174Z,987.965
2018-06-28T05:42:50.302Z,987.979
2018-06-28T05:44:50.375Z,987.978
2018-06-28T05:46:50.611Z,987.982
2018-06-28T05:48:49.699Z,987.958
2018-06-28T05:50:49.775Z,987.958
2018-06-28T05:52:49.877Z,987.942
2018-06-28T05:54:49.949Z,987.938
2018-06-28T05:56:50.157Z,987.932
2018-06-28T05:58:50.278Z,987.939
2018-06-28T06:00:50.388Z,987.899
2018-06-28T06:02:50.463Z,987.901
2018-06-28T06:04:49.781Z,987.916
2018-06-28T06:06:50.041Z,987.927
2018-06-28T06:08:50.214Z,987.951
2018-06-28T06:10:50.311Z,987.958
2018-06-28T06:12:50.407Z,987.974
2018-06-28T06:14:50.479Z,987.988
2018-06-28T06:16:49.741Z,987.980
2018-06-28T06:18:49.989Z,987.972
2018-06-28T06:20:50.069Z,987.966
2018-06-28T06:22:50.141Z,987.965
2018-06-28T06:24:50.342Z,987.970
2018-06-28T06:26:49.678Z,987.958
2018-06-28T06:28:49.783Z,987.964
2018-06-28T06:30:50.033Z,987.976
2018-06-28T06:32:50.086Z,987.986
2018-06-28T06:34:50.311Z,987.969
2018-06-28T06:36:50.545Z,987.962
2018-06-28T06:38:50.611Z,987.941
2018-06-28T06:40:49.699Z,987.929
2018-06-28T06:42:49.770Z,987.914
2018-06-28T06:44:49.832Z,987.893
2018-06-28T06:46:50.004Z,987.886
2018-06-28T06:48:50.408Z,987.870
2018-06-28T06:50:50.128Z,987.841
2018-06-28T06:52:50.205Z,987.821
2018-06-28T06:54:50.313Z,987.751
2018-06-28T06:56:50.543Z,987.742
2018-06-28T06:58:50.598Z,987.719
2018-06-28T07:00:49.818Z,987.690
2018-06-28T07:02:49.876Z,987.651
2018-06-28T07:04:50.162Z,987.617
2018-06-28T07:06:50.389Z,987.617
2018-06-28T07:08:50.515Z,987.592
2018-06-28T07:10:49.830Z,987.574
2018-06-28T07:12:49.966Z,987.548
2018-06-28T07:14:50.025Z,987.523
2018-06-28T07:16:50.339Z,987.507
2018-06-28T07:18:50.475Z,987.477
2018-06-28T07:20:50.579Z,987.441
2018-06-28T07:22:50.044Z,987.429
2018-06-28T07:24:49.888Z,987.421
2018-06-28T07:26:50.099Z,987.391
2018-06-28T07:28:50.206Z,987.373
2018-06-28T07:30:49.997Z,987.379
2018-06-28T07:32:50.111Z,987.380
2018-06-28T07:34:50.488Z,987.358
2018-06-28T07:36:49.703Z,987.330
2018-06-28T07:38:49.787Z,987.310
2018-06-28T07:40:50.042Z,987.311
2018-06-28T07:42:50.114Z,987.282
2018-06-28T07:44:50.176Z,987.267
2018-06-28T07:46:50.592Z,987.264
2018-06-28T07:48:50.012Z,987.296
2018-06-28T07:50:50.076Z,987.293
2018-06-28T07:52:50.151Z,987.291
2018-06-28T07:54:50.191Z,987.306
2018-06-28T07:56:50.373Z,987.290
2018-06-28T07:58:50.557Z,987.285
2018-06-28T08:00:49.660Z,987.260
2018-06-28T08:02:49.764Z,987.277
2018-06-28T08:04:49.975Z,987.259
2018-06-28T08:06:50.119Z,987.248
2018-06-28T08:08:50.231Z,987.237
2018-06-28T08:10:50.292Z,987.244
2018-06-28T08:12:50.359Z,987.246
2018-06-28T08:14:50.401Z,987.211
2018-06-28T08:16:50.585Z,987.184
2018-06-28T08:18:49.932Z,987.146
2018-06-28T08:20:50.026Z,987.144
2018-06-28T08:22:50.221Z,987.136
2018-06-28T08:24:50.345Z,987.119
2018-06-28T08:26:49.711Z,987.142
2018-06-28T08:28:50.011Z,987.147
2018-06-28T08:30:50.137Z,987.141
2018-06-28T08:32:50.199Z,987.128
2018-06-28T08:34:50.461Z,987.135
2018-06-28T08:36:49.810Z,987.108
2018-06-28T08:38:49.922Z,987.115
2018-06-28T08:40:49.963Z,987.102
2018-06-28T08:42:49.995Z,987.088
2018-06-28T08:44:50.068Z,987.054
2018-06-28T08:46:50.249Z,987.052
2018-06-28T08:48:50.341Z,987.030
2018-06-28T08:50:50.405Z,987.042
2018-06-28T08:52:50.573Z,987.007
2018-06-28T08:54:50.606Z,987.016
2018-06-28T08:56:49.880Z,987.021
2018-06-28T08:58:50.103Z,986.951
2018-06-28T09:00:50.185Z,986.939
2018-06-28T09:02:50.229Z,986.891
2018-06-28T09:04:50.492Z,986.872
2018-06-28T09:06:49.822Z,986.866
2018-06-28T09:08:49.903Z,986.842
2018-06-28T09:10:49.932Z,986.818
2018-06-28T09:12:49.992Z,986.818
2018-06-28T09:14:50.058Z,986.823
2018-06-28T09:16:50.320Z,986.775
2018-06-28T09:18:50.511Z,986.794
2018-06-28T09:20:49.621Z,986.808
2018-06-28T09:22:49.821Z,986.807
2018-06-28T09:24:50.162Z,986.803
2018-06-28T09:26:50.379Z,986.797
2018-06-28T09:28:50.461Z,986.790
2018-06-28T09:30:50.524Z,986.792
2018-06-28T09:32:50.578Z,986.797
2018-06-28T09:34:49.867Z,986.786
2018-06-28T09:36:50.016Z,986.790
2018-06-28T09:38:50.055Z,986.793
2018-06-28T09:40:50.222Z,986.779
2018-06-28T09:42:50.277Z,986.755
2018-06-28T09:44:50.384Z,986.769
2018-06-28T09:46:49.689Z,986.801
2018-06-28T09:48:49.888Z,986.815
2018-06-28T09:50:50.013Z,986.771
2018-06-28T09:52:50.033Z,986.758
2018-06-28T09:54:50.445Z,986.784
2018-06-28T09:56:49.985Z,986.784
2018-06-28T09:58:50.080Z,986.805
2018-06-28T10:00:50.130Z,986.775
2018-06-28T10:02:50.079Z,986.764
2018-06-28T10:04:50.415Z,986.781
2018-06-28T10:06:49.838Z,986.795
2018-06-28T10:08:50.136Z,986.795
2018-06-28T10:10:50.222Z,986.699
2018-06-28T10:12:50.339Z,986.687
2018-06-28T10:14:50.939Z,986.658
2018-06-28T10:16:49.743Z,986.649
2018-06-28T10:18:49.847Z,986.618
2018-06-28T10:20:49.874Z,986.600
2018-06-28T10:22:49.964Z,986.598
2018-06-28T10:24:50.072Z,986.616
2018-06-28T10:26:50.265Z,986.569
2018-06-28T10:28:50.311Z,986.551
2018-06-28T10:30:50.413Z,986.510
2018-06-28T10:32:50.682Z,986.492
2018-06-28T10:34:50.387Z,986.474
2018-06-28T10:36:49.638Z,986.430
2018-06-28T10:38:49.705Z,986.419
2018-06-28T10:40:50.048Z,986.379
2018-06-28T10:42:50.466Z,986.382
2018-06-28T10:44:50.576Z,986.380
2018-06-28T10:46:49.849Z,986.389
2018-06-28T10:48:49.952Z,986.380
2018-06-28T10:50:50.050Z,986.355
2018-06-28T10:52:50.096Z,986.325
2018-06-28T10:54:50.207Z,986.315
2018-06-28T10:56:50.388Z,986.279
2018-06-28T10:58:50.470Z,986.241
2018-06-28T11:00:50.499Z,986.186
2018-06-28T11:02:49.671Z,986.148
2018-06-28T11:04:49.927Z,986.123
2018-06-28T11:06:50.075Z,986.080
2018-06-28T11:08:50.194Z,986.065
2018-06-28T11:10:50.273Z,986.035
2018-06-28T11:12:50.385Z,986.035
2018-06-28T11:14:50.545Z,986.002
2018-06-28T11:16:49.845Z,985.988
2018-06-28T11:18:49.941Z,985.950
2018-06-28T11:20:50.018Z,985.920
2018-06-28T11:22:50.217Z,985.915
2018-06-28T11:24:50.291Z,985.911
2018-06-28T11:26:50.497Z,985.859
2018-06-28T11:28:50.554Z,985.878
2018-06-28T11:30:49.658Z,985.866
2018-06-28T11:32:49.780Z,985.802
2018-06-28T11:34:50.007Z,985.765
2018-06-28T11:36:50.273Z,985.740
2018-06-28T11:38:50.325Z,985.698
2018-06-28T11:40:50.663Z,985.673
2018-06-28T11:42:49.709Z,985.681
2018-06-28T11:44:49.787Z,985.627
2018-06-28T11:46:49.961Z,985.574
2018-06-28T11:48:49.992Z,985.560
2018-06-28T11:50:50.116Z,985.551
2018-06-28T11:52:50.180Z,985.541
2018-06-28T11:54:50.295Z,985.532
2018-06-28T11:56:50.436Z,985.552
2018-06-28T11:58:50.557Z,985.541
2018-06-28T12:00:49.619Z,985.514
2018-06-28T12:02:49.748Z,985.485
2018-06-28T12:04:50.100Z,985.478
2018-06-28T12:06:50.299Z,985.478
2018-06-28T12:08:50.420Z,985.481
2018-06-28T12:10:50.509Z,985.440
2018-06-28T12:12:50.594Z,985.414
2018-06-28T12:14:49.629Z,985.388
2018-06-28T12:16:50.193Z,985.355
2018-06-28T12:18:50.445Z,985.355
2018-06-28T12:20:49.647Z,985.365
2018-06-28T12:22:49.721Z,985.356
2018-06-28T12:24:49.743Z,985.328
2018-06-28T12:26:49.939Z,985.272
2018-06-28T12:28:50.018Z,985.201
2018-06-28T12:30:50.103Z,985.175
2018-06-28T12:32:50.298Z,985.145
2018-06-28T12:34:50.543Z,985.115
2018-06-28T12:36:49.692Z,985.130
2018-06-28T12:38:49.800Z,985.109
2018-06-28T12:40:49.901Z,985.105
2018-06-28T12:42:49.948Z,985.111
2018-06-28T12:44:50.036Z,985.131
2018-06-28T12:46:50.191Z,985.128
2018-06-28T12:48:49.778Z,985.092
2018-06-28T12:50:49.843Z,985.076
2018-06-28T12:52:49.918Z,985.099
2018-06-28T12:54:49.932Z,985.080
2018-06-28T12:56:50.108Z,985.059
2018-06-28T12:58:50.189Z,985.017
2018-06-28T13:00:50.294Z,985.022
2018-06-28T13:02:50.343Z,984.994
2018-06-28T13:04:50.608Z,984.996
2018-06-28T13:06:49.815Z,985.015
2018-06-28T13:08:49.853Z,985.033
2018-06-28T13:10:49.955Z,985.027
2018-06-28T13:12:49.995Z,985.018
2018-06-28T13:14:50.055Z,985.014
2018-06-28T13:16:50.184Z,984.993
2018-06-28T13:18:50.822Z,984.993
2018-06-28T13:20:50.396Z,984.966
2018-06-28T13:22:50.558Z,984.951
2018-06-28T13:24:50.957Z,984.941
2018-06-28T13:26:49.682Z,984.919
2018-06-28T13:28:49.812Z,984.887
2018-06-28T13:30:49.883Z,984.874
2018-06-28T13:32:50.036Z,984.862
2018-06-28T13:34:50.377Z,984.848
2018-06-28T13:36:50.557Z,984.791
2018-06-28T13:38:49.611Z,984.753
2018-06-28T13:40:50.230Z,984.728
2018-06-28T13:42:50.092Z,984.755
2018-06-28T13:44:50.148Z,984.764
2018-06-28T13:46:50.326Z,984.759
2018-06-28T13:48:50.467Z,984.789
2018-06-28T13:50:50.589Z,984.769
2018-06-28T13:52:50.594Z,984.771
2018-06-28T13:54:49.687Z,984.778
2018-06-28T13:56:49.846Z,984.773
2018-06-28T13:58:49.907Z,984.773
2018-06-28T14:00:50.046Z,984.757
2018-06-28T14:02:50.088Z,984.764
2018-06-28T14:04:50.388Z,984.741
2018-06-28T14:06:50.584Z,984.724
2018-06-28T14:08:49.751Z,984.748
2018-06-28T14:10:49.905Z,984.737
2018-06-28T14:12:49.950Z,984.737
2018-06-28T14:14:50.068Z,984.772
2018-06-28T14:16:50.219Z,984.774
2018-06-28T14:18:50.717Z,984.785
2018-06-28T14:20:49.937Z,984.831
2018-06-28T14:22:50.044Z,984.846
2018-06-28T14:24:50.163Z,984.929
2018-06-28T14:26:50.340Z,984.957
2018-06-28T14:28:50.450Z,984.968
2018-06-28T14:30:50.589Z,985.005
2018-06-28T14:32:49.785Z,985.079
2018-06-28T14:34:50.147Z,985.112
2018-06-28T14:36:50.398Z,985.208
2018-06-28T14:38:49.699Z,985.252
2018-06-28T14:40:49.820Z,985.279
2018-06-28T14:42:49.870Z,985.281
2018-06-28T14:44:50.173Z,985.274
2018-06-28T14:46:49.714Z,985.296
2018-06-28T14:48:49.759Z,985.316
2018-06-28T14:50:49.995Z,985.338
2018-06-28T14:52:50.093Z,985.327
2018-06-28T14:54:50.314Z,985.304
2018-06-28T14:56:50.565Z,985.290
2018-06-28T14:58:49.910Z,985.284
2018-06-28T15:00:50.003Z,985.294
2018-06-28T15:02:50.059Z,985.301
2018-06-28T15:04:50.357Z,985.305
2018-06-28T15:06:50.492Z,985.318
2018-06-28T15:08:50.566Z,985.328
2018-06-28T15:10:49.671Z,985.336
2018-06-28T15:12:49.757Z,985.341
2018-06-28T15:14:49.816Z,985.353
2018-06-28T15:16:50.052Z,985.361
2018-06-28T15:18:50.088Z,985.371
2018-06-28T15:20:50.214Z,985.375
2018-06-28T15:22:50.491Z,985.374
2018-06-28T15:24:50.593Z,985.405
2018-06-28T15:26:49.836Z,985.429
2018-06-28T15:28:49.984Z,985.431
2018-06-28T15:30:50.201Z,985.441
2018-06-28T15:32:50.356Z,985.441
2018-06-28T15:34:49.659Z,985.460
2018-06-28T15:36:49.831Z,985.430
2018-06-28T15:38:49.955Z,985.433
2018-06-28T15:40:50.108Z,985.444
2018-06-28T15:42:50.226Z,985.433
2018-06-28T15:44:50.358Z,985.429
2018-06-28T15:46:50.539Z,985.413
2018-06-28T15:48:49.633Z,985.372
2018-06-28T15:50:49.750Z,985.353
2018-06-28T15:52:49.827Z,985.346
2018-06-28T15:54:49.993Z,985.323
2018-06-28T15:56:50.262Z,985.314
2018-06-28T15:58:50.350Z,985.314
2018-06-28T16:00:50.429Z,985.280
2018-06-28T16:02:49.731Z,985.276
2018-06-28T16:04:50.342Z,985.239
2018-06-28T16:06:50.543Z,985.239
2018-06-28T16:08:49.638Z,985.195
2018-06-28T16:10:49.761Z,985.168
2018-06-28T16:12:50.140Z,985.161
2018-06-28T16:14:50.265Z,985.175
2018-06-28T16:16:50.596Z,985.165
2018-06-28T16:18:49.678Z,985.136
2018-06-28T16:20:49.861Z,985.128
2018-06-28T16:22:50.047Z,985.148
2018-06-28T16:24:50.214Z,985.170
2018-06-28T16:26:50.472Z,985.172
2018-06-28T16:28:50.626Z,985.186
2018-06-28T16:30:49.717Z,985.200
2018-06-28T16:32:49.810Z,985.181
2018-06-28T16:34:50.152Z,985.179
2018-06-28T16:36:50.458Z,985.162
2018-06-28T16:38:50.555Z,985.165
2018-06-28T16:40:49.693Z,985.174
2018-06-28T16:42:49.800Z,985.182
2018-06-28T16:44:49.889Z,985.194
2018-06-28T16:46:50.146Z,985.187
2018-06-28T16:48:50.294Z,985.199
2018-06-28T16:50:50.372Z,985.221
2018-06-28T16:52:50.599Z,985.218
2018-06-28T16:54:49.682Z,985.226
2018-06-28T16:56:49.907Z,985.241
2018-06-28T16:58:50.004Z,985.214
2018-06-28T17:00:50.115Z,985.197
2018-06-28T17:02:50.371Z,985.190
2018-06-28T17:04:49.612Z,985.155
2018-06-28T17:06:49.904Z,985.157
2018-06-28T17:08:50.010Z,985.178
2018-06-28T17:10:50.103Z,985.185
2018-06-28T17:12:50.279Z,985.206
2018-06-28T17:14:50.504Z,985.245
2018-06-28T17:16:49.750Z,985.252
2018-06-28T17:18:49.787Z,985.254
2018-06-28T17:20:50.051Z,985.264
2018-06-28T17:22:50.188Z,985.257
2018-06-28T17:24:50.275Z,985.237
2018-06-28T17:26:50.531Z,985.223
2018-06-28T17:28:49.635Z,985.143
2018-06-28T17:30:49.719Z,985.108
2018-06-28T17:32:49.898Z,985.095
2018-06-28T17:34:50.412Z,985.085
2018-06-28T17:36:49.721Z,985.066
2018-06-28T17:38:49.873Z,985.043
2018-06-28T17:40:49.993Z,985.035
2018-06-28T17:42:50.168Z,985.055
2018-06-28T17:44:49.657Z,985.069
2018-06-28T17:46:49.835Z,985.080
2018-06-28T17:48:49.983Z,985.099
2018-06-28T17:50:50.113Z,985.080
2018-06-28T17:52:50.454Z,985.079
2018-06-28T17:54:50.630Z,985.079
2018-06-28T17:56:49.912Z,985.002
2018-06-28T17:58:50.065Z,984.982
2018-06-28T18:00:50.197Z,984.956
2018-06-28T18:02:50.403Z,984.959
2018-06-28T18:04:50.007Z,985.010
2018-06-28T18:06:49.761Z,985.029
2018-06-28T18:08:49.980Z,985.059
2018-06-28T18:10:50.376Z,985.068
2018-06-28T18:12:50.767Z,985.068
2018-06-28T18:14:50.285Z,985.099
2018-06-28T18:16:50.539Z,985.121
2018-06-28T18:18:49.644Z,985.095
2018-06-28T18:20:49.971Z,985.104
2018-06-28T18:22:50.499Z,985.108
2018-06-28T18:24:50.566Z,985.087
2018-06-28T18:26:49.815Z,985.067
2018-06-28T18:28:49.925Z,985.059
2018-06-28T18:30:50.095Z,985.054
2018-06-28T18:32:50.174Z,985.064
2018-06-28T18:34:50.521Z,985.094
2018-06-28T18:36:49.761Z,985.100
2018-06-28T18:38:49.895Z,985.068
2018-06-28T18:40:49.979Z,985.005
2018-06-28T18:42:50.105Z,984.958
2018-06-28T18:44:50.204Z,984.905
2018-06-28T18:46:50.464Z,984.862
2018-06-28T18:48:50.514Z,984.845
2018-06-28T18:50:51.389Z,984.824
2018-06-28T18:52:49.692Z,984.841
2018-06-28T18:54:49.741Z,984.855
2018-06-28T18:56:49.974Z,984.862
2018-06-28T18:58:50.083Z,984.870
2018-06-28T19:00:50.149Z,984.868
2018-06-28T19:02:50.252Z,984.885
2018-06-28T19:04:49.620Z,984.893
2018-06-28T19:06:49.790Z,984.904
2018-06-28T19:08:49.988Z,984.908
2018-06-28T19:10:50.109Z,984.895
2018-06-28T19:12:49.679Z,984.887
2018-06-28T19:14:49.775Z,984.885
2018-06-28T19:16:50.036Z,984.916
2018-06-28T19:18:50.395Z,984.924
2018-06-28T19:20:50.548Z,984.931
2018-06-28T19:22:49.747Z,984.922
2018-06-28T19:24:49.933Z,984.929
2018-06-28T19:26:50.174Z,984.927
2018-06-28T19:28:50.247Z,984.964
2018-06-28T19:30:50.419Z,984.982
2018-06-28T19:32:49.803Z,985.007
2018-06-28T19:34:50.178Z,985.017
2018-06-28T19:36:50.365Z,984.999
2018-06-28T19:38:50.497Z,984.999
2018-06-28T19:40:50.572Z,985.055
2018-06-28T19:42:49.729Z,985.078
2018-06-28T19:44:49.619Z,985.069
2018-06-28T19:46:49.892Z,985.062
2018-06-28T19:48:50.255Z,985.063
2018-06-28T19:50:50.385Z,985.087
2018-06-28T19:52:49.658Z,985.087
2018-06-28T19:54:50.309Z,984.995
2018-06-28T19:56:50.565Z,984.977
2018-06-28T19:58:49.665Z,984.967
2018-06-28T20:00:50.103Z,984.982
2018-06-28T20:02:50.313Z,985.003
2018-06-28T20:04:50.601Z,985.042
2018-06-28T20:06:49.677Z,985.036
2018-06-28T20:08:49.771Z,985.042
2018-06-28T20:10:50.125Z,985.050
2018-06-28T20:12:50.197Z,985.041
2018-06-28T20:14:50.417Z,985.044
2018-06-28T20:16:50.549Z,985.006
2018-06-28T20:18:49.611Z,984.987
2018-06-28T20:20:49.816Z,984.969
2018-06-28T20:22:50.075Z,984.960
2018-06-28T20:24:50.270Z,984.956
2018-06-28T20:26:50.566Z,984.953
2018-06-28T20:28:49.608Z,984.969
2018-06-28T20:30:49.702Z,985.014
2018-06-28T20:32:49.789Z,985.021
2018-06-28T20:34:49.943Z,985.028
2018-06-28T20:36:50.195Z,985.052
2018-06-28T20:38:50.261Z,985.053
2018-06-28T20:40:50.364Z,985.044
2018-06-28T20:42:50.497Z,985.039
2018-06-28T20:44:50.864Z,985.044
2018-06-28T20:46:50.020Z,985.052
2018-06-28T20:48:50.094Z,985.036
2018-06-28T20:50:50.397Z,985.035
2018-06-28T20:52:49.863Z,985.030
2018-06-28T20:54:50.012Z,985.030
2018-06-28T20:56:50.282Z,985.045
2018-06-28T20:58:50.527Z,985.044
2018-06-28T21:00:50.593Z,985.047
2018-06-28T21:02:49.678Z,985.044
2018-06-28T21:04:49.966Z,985.034
2018-06-28T21:06:50.169Z,985.019
2018-06-28T21:08:50.360Z,985.020
2018-06-28T21:10:50.486Z,985.010
2018-06-28T21:12:49.645Z,984.992
2018-06-28T21:14:49.772Z,985.001
2018-06-28T21:16:49.966Z,984.987
2018-06-28T21:18:50.080Z,984.959
2018-06-28T21:20:50.198Z,984.954
2018-06-28T21:22:50.404Z,984.927
2018-06-28T21:24:50.687Z,984.909
2018-06-28T21:26:50.121Z,984.907
2018-06-28T21:28:50.607Z,984.903
2018-06-28T21:30:49.712Z,984.891
2018-06-28T21:32:49.886Z,984.888
2018-06-28T21:34:50.513Z,984.901
2018-06-28T21:36:50.149Z,984.899
2018-06-28T21:38:50.314Z,984.894
2018-06-28T21:40:50.532Z,984.894
2018-06-28T21:42:49.700Z,984.894
2018-06-28T21:44:49.790Z,984.918
2018-06-28T21:46:49.985Z,984.909
2018-06-28T21:48:50.065Z,984.910
2018-06-28T21:50:50.225Z,984.908
2018-06-28T21:52:50.362Z,984.905
2018-06-28T21:54:50.484Z,984.899
2018-06-28T21:56:49.700Z,984.902
2018-06-28T21:58:49.893Z,984.908
2018-06-28T22:00:50.069Z,984.892
2018-06-28T22:02:50.236Z,984.889
2018-06-28T22:04:49.713Z,984.883
2018-06-28T22:06:49.920Z,984.891
2018-06-28T22:08:50.078Z,984.907
2018-06-28T22:10:50.226Z,984.919
2018-06-28T22:12:50.531Z,984.923
2018-06-28T22:14:49.799Z,984.921
2018-06-28T22:16:50.299Z,984.921
2018-06-28T22:18:50.376Z,984.930
2018-06-28T22:20:50.558Z,984.897
2018-06-28T22:22:49.617Z,984.870
2018-06-28T22:24:49.847Z,984.843
2018-06-28T22:26:50.100Z,984.841
2018-06-28T22:28:50.232Z,984.829
2018-06-28T22:30:50.391Z,984.810
2018-06-28T22:32:50.528Z,984.802
2018-06-28T22:34:50.049Z,984.793
2018-06-28T22:36:50.317Z,984.769
2018-06-28T22:38:50.423Z,984.769
2018-06-28T22:40:50.507Z,984.734
2018-06-28T22:42:49.633Z,984.723
2018-06-28T22:44:49.808Z,984.742
2018-06-28T22:46:50.113Z,984.740
2018-06-28T22:48:50.206Z,984.732
2018-06-28T22:50:50.281Z,984.707
2018-06-28T22:52:50.390Z,984.678
2018-06-28T22:54:49.636Z,984.663
2018-06-28T22:56:49.877Z,984.659
2018-06-28T22:58:49.956Z,984.639
2018-06-28T23:00:50.101Z,984.658
2018-06-28T23:02:50.252Z,984.642
2018-06-28T23:04:49.654Z,984.625
2018-06-28T23:06:49.841Z,984.628
2018-06-28T23:08:49.934Z,984.641
2018-06-28T23:10:50.031Z,984.640
2018-06-28T23:12:50.219Z,984.647
2018-06-28T23:14:50.323Z,984.647
2018-06-28T23:16:50.552Z,984.664
2018-06-28T23:18:49.619Z,984.667
2018-06-28T23:20:49.713Z,984.676
2018-06-28T23:22:49.895Z,984.723
2018-06-28T23:24:49.973Z,984.725
2018-06-28T23:26:50.287Z,984.731
2018-06-28T23:28:50.367Z,984.731
2018-06-28T23:30:50.518Z,984.728
2018-06-28T23:32:50.742Z,984.747
2018-06-28T23:34:50.200Z,984.733
2018-06-28T23:36:50.574Z,984.738
2018-06-28T23:38:49.659Z,984.728
2018-06-28T23:40:49.724Z,984.709
2018-06-28T23:42:49.866Z,984.674
2018-06-28T23:44:49.995Z,984.651
2018-06-28T23:46:50.288Z,984.615
2018-06-28T23:48:50.368Z,984.610
2018-06-28T23:50:50.545Z,984.607
2018-06-28T23:52:49.700Z,984.586
2018-06-28T23:54:49.826Z,984.599
2018-06-28T23:56:49.983Z,984.591
2018-06-28T23:58:50.091Z,984.578
